createdAt,value
2019-01-14T00:02:00.481Z,44.21
2019-01-14T00:04:29.454Z,44.28
2019-01-14T00:06:59.406Z,44.40
2019-01-14T00:09:31.332Z,44.30
2019-01-14T00:12:02.776Z,44.30
2019-01-14T00:14:33.300Z,44.02
2019-01-14T00:17:04.369Z,43.65
2019-01-14T00:19:34.762Z,43.72
2019-01-14T00:22:04.383Z,43.86
2019-01-14T00:24:35.773Z,43.49
2019-01-14T00:27:05.855Z,43.54
2019-01-14T00:29:37.772Z,43.87
2019-01-14T00:32:07.788Z,43.78
2019-01-14T00:34:37.805Z,43.85
2019-01-14T00:37:07.881Z,43.90
2019-01-14T00:39:37.706Z,43.28
2019-01-14T00:42:07.805Z,43.96
2019-01-14T00:45:14.396Z,43.95
2019-01-14T00:47:44.416Z,44.06
2019-01-14T00:50:15.263Z,44.22
2019-01-14T00:52:44.858Z,44.22
2019-01-14T00:55:14.688Z,44.22
2019-01-14T00:57:45.793Z,44.39
2019-01-14T01:00:24.981Z,44.59
2019-01-14T01:02:55.753Z,44.59
2019-01-14T01:05:25.874Z,44.33
2019-01-14T01:07:55.765Z,44.04
2019-01-14T01:10:26.012Z,44.04
2019-01-14T01:12:55.818Z,43.91
2019-01-14T01:15:25.822Z,43.91
2019-01-14T01:17:55.211Z,43.97
2019-01-14T01:20:24.805Z,44.20
2019-01-14T01:22:53.882Z,44.20
2019-01-14T01:25:22.860Z,44.36
2019-01-14T01:27:52.830Z,44.06
2019-01-14T01:30:21.832Z,43.98
2019-01-14T01:32:50.854Z,43.89
2019-01-14T01:35:20.863Z,44.39
2019-01-14T01:37:50.354Z,44.39
2019-01-14T01:40:21.432Z,43.83
2019-01-14T01:42:50.852Z,44.00
2019-01-14T01:45:20.398Z,44.14
2019-01-14T01:47:51.352Z,44.21
2019-01-14T01:50:20.851Z,44.11
2019-01-14T01:52:50.828Z,44.11
2019-01-14T01:55:19.841Z,43.93
2019-01-14T01:57:49.045Z,43.94
2019-01-14T02:00:23.885Z,44.64
2019-01-14T02:02:53.885Z,44.20
2019-01-14T02:05:23.845Z,44.16
2019-01-14T02:07:53.822Z,44.16
2019-01-14T02:10:23.798Z,44.16
2019-01-14T02:12:51.834Z,44.16
2019-01-14T02:15:22.939Z,44.17
2019-01-14T02:17:52.855Z,44.13
2019-01-14T02:20:20.822Z,44.13
2019-01-14T02:22:50.842Z,44.41
2019-01-14T02:25:19.145Z,44.41
2019-01-14T02:27:48.344Z,43.74
2019-01-14T02:30:21.893Z,43.74
2019-01-14T02:32:49.888Z,44.36
2019-01-14T02:35:18.357Z,44.14
2019-01-14T02:37:46.821Z,44.14
2019-01-14T02:40:18.787Z,43.90
2019-01-14T02:42:46.677Z,43.90
2019-01-14T02:45:15.891Z,43.96
2019-01-14T02:47:43.724Z,43.77
2019-01-14T02:50:11.821Z,43.77
2019-01-14T02:52:40.826Z,43.97
2019-01-14T02:55:08.769Z,44.11
2019-01-14T02:57:37.840Z,43.91
2019-01-14T03:00:08.827Z,43.76
2019-01-14T03:02:36.833Z,43.68
2019-01-14T03:05:05.810Z,44.05
2019-01-14T03:07:33.795Z,44.05
2019-01-14T03:10:01.738Z,43.73
2019-01-14T03:12:29.720Z,43.99
2019-01-14T03:14:58.794Z,43.54
2019-01-14T03:17:26.881Z,43.79
2019-01-14T03:19:55.799Z,43.66
2019-01-14T03:22:23.802Z,43.66
2019-01-14T03:24:51.817Z,43.72
2019-01-14T03:27:19.820Z,43.77
2019-01-14T03:29:47.838Z,43.97
2019-01-14T03:32:15.879Z,43.58
2019-01-14T03:34:43.838Z,43.65
2019-01-14T03:37:12.859Z,43.65
2019-01-14T03:39:43.659Z,43.47
2019-01-14T03:42:12.833Z,43.89
2019-01-14T03:44:40.743Z,43.82
2019-01-14T03:47:08.834Z,43.68
2019-01-14T03:49:37.393Z,43.84
2019-01-14T03:52:05.888Z,43.67
2019-01-14T03:54:34.826Z,43.72
2019-01-14T03:57:02.842Z,43.72
2019-01-14T03:59:30.978Z,43.46
2019-01-14T04:01:58.886Z,43.79
2019-01-14T04:04:26.872Z,43.70
2019-01-14T04:06:55.340Z,43.54
2019-01-14T04:09:23.893Z,43.54
2019-01-14T04:11:51.809Z,43.65
2019-01-14T04:14:19.757Z,43.44
2019-01-14T04:16:48.307Z,43.26
2019-01-14T04:19:17.727Z,42.83
2019-01-14T04:21:45.793Z,43.26
2019-01-14T04:24:13.751Z,43.34
2019-01-14T04:26:41.771Z,43.17
2019-01-14T04:29:10.804Z,42.93
2019-01-14T04:31:39.388Z,42.97
2019-01-14T04:34:07.823Z,43.03
2019-01-14T04:36:36.881Z,42.83
2019-01-14T04:39:07.893Z,43.17
2019-01-14T04:41:35.882Z,42.87
2019-01-14T04:44:04.756Z,42.75
2019-01-14T04:46:34.778Z,42.75
2019-01-14T04:49:03.834Z,42.75
2019-01-14T04:51:31.903Z,43.38
2019-01-14T04:54:00.664Z,43.17
2019-01-14T04:56:29.844Z,43.17
2019-01-14T04:58:58.840Z,43.01
2019-01-14T05:01:26.842Z,42.17
2019-01-14T05:03:55.669Z,42.77
2019-01-14T05:06:23.919Z,42.59
2019-01-14T05:08:52.830Z,42.95
2019-01-14T05:11:20.865Z,42.95
2019-01-14T05:13:49.989Z,42.73
2019-01-14T05:16:18.889Z,42.97
2019-01-14T05:18:46.833Z,43.02
2019-01-14T05:23:10.887Z,42.86
2019-01-14T05:25:39.571Z,42.86
2019-01-14T05:28:08.837Z,42.69
2019-01-14T05:30:36.915Z,42.94
2019-01-14T05:33:05.487Z,42.67
2019-01-14T05:35:34.875Z,42.67
2019-01-14T05:38:03.129Z,42.52
2019-01-14T05:40:31.936Z,42.36
2019-01-14T05:42:59.838Z,41.90
2019-01-14T05:45:27.880Z,41.90
2019-01-14T05:47:56.047Z,42.42
2019-01-14T05:50:25.828Z,41.32
2019-01-14T05:53:33.258Z,42.30
2019-01-14T05:56:00.502Z,42.30
2019-01-14T05:58:28.072Z,42.55
2019-01-14T06:00:56.256Z,42.66
2019-01-14T06:03:24.092Z,42.70
2019-01-14T06:05:51.393Z,42.83
2019-01-14T06:08:20.464Z,42.66
2019-01-14T06:10:48.408Z,42.32
2019-01-14T06:13:15.618Z,42.51
2019-01-14T06:15:43.891Z,42.34
2019-01-14T06:18:13.909Z,41.35
2019-01-14T06:20:42.862Z,42.38
2019-01-14T06:23:13.846Z,41.81
2019-01-14T06:25:42.376Z,41.81
2019-01-14T06:28:12.425Z,42.35
2019-01-14T06:30:40.893Z,42.48
2019-01-14T06:33:09.770Z,42.51
2019-01-14T06:35:37.929Z,42.51
2019-01-14T06:38:06.337Z,43.44
2019-01-14T06:40:34.882Z,43.44
2019-01-14T06:43:02.955Z,42.89
2019-01-14T06:45:33.831Z,42.75
2019-01-14T06:48:02.396Z,42.75
2019-01-14T06:50:31.338Z,42.69
2019-01-14T06:52:59.896Z,42.40
2019-01-14T06:55:27.883Z,42.74
2019-01-14T06:57:55.890Z,41.70
2019-01-14T07:00:25.893Z,41.58
2019-01-14T07:02:54.344Z,42.45
2019-01-14T07:05:24.786Z,42.45
2019-01-14T07:08:42.900Z,42.83
2019-01-14T07:11:10.946Z,42.96
2019-01-14T07:13:38.469Z,42.81
2019-01-14T07:16:05.883Z,42.80
2019-01-14T07:18:33.594Z,41.79
2019-01-14T07:21:01.674Z,42.66
2019-01-14T07:23:30.442Z,42.60
2019-01-14T07:25:57.861Z,42.62
2019-01-14T07:28:25.247Z,41.06
2019-01-14T07:30:52.495Z,41.06
2019-01-14T07:33:20.420Z,42.02
2019-01-14T07:35:48.384Z,42.11
2019-01-14T07:38:15.758Z,42.46
2019-01-14T07:40:42.699Z,42.29
2019-01-14T07:43:09.834Z,42.67
2019-01-14T07:45:37.724Z,43.03
2019-01-14T07:48:04.994Z,42.29
2019-01-14T07:50:32.882Z,41.82
2019-01-14T07:53:00.952Z,42.37
2019-01-14T07:55:28.627Z,42.42
2019-01-14T07:57:55.942Z,42.45
2019-01-14T08:00:25.787Z,42.46
2019-01-14T08:02:53.450Z,42.40
2019-01-14T08:05:20.990Z,42.63
2019-01-14T08:07:49.071Z,40.97
2019-01-14T08:10:17.038Z,42.00
2019-01-14T08:12:44.756Z,42.33
2019-01-14T08:15:33.801Z,42.11
2019-01-14T08:18:02.361Z,42.08
2019-01-14T08:20:31.722Z,42.17
2019-01-14T08:23:00.868Z,42.19
2019-01-14T08:25:28.847Z,42.04
2019-01-14T08:27:56.834Z,42.14
2019-01-14T08:30:24.835Z,42.31
2019-01-14T08:32:52.709Z,41.73
2019-01-14T08:35:21.765Z,41.73
2019-01-14T08:37:50.057Z,42.28
2019-01-14T08:40:20.331Z,41.68
2019-01-14T08:42:49.701Z,41.68
2019-01-14T08:45:17.787Z,41.74
2019-01-14T08:47:45.794Z,41.63
2019-01-14T08:50:18.773Z,41.47
2019-01-14T08:52:47.773Z,41.36
2019-01-14T08:55:15.791Z,41.94
2019-01-14T08:57:43.781Z,41.88
2019-01-14T09:00:17.533Z,42.02
2019-01-14T09:02:45.963Z,42.02
2019-01-14T09:05:14.802Z,41.88
2019-01-14T09:07:42.852Z,41.97
2019-01-14T09:10:13.877Z,41.87
2019-01-14T09:12:42.831Z,41.90
2019-01-14T09:15:12.650Z,42.12
2019-01-14T09:17:41.143Z,42.12
2019-01-14T09:20:16.795Z,41.64
2019-01-14T09:22:44.781Z,42.00
2019-01-14T09:25:12.978Z,41.79
2019-01-14T09:27:41.714Z,42.05
2019-01-14T09:30:15.781Z,42.05
2019-01-14T09:32:43.960Z,41.53
2019-01-14T09:35:12.805Z,41.72
2019-01-14T09:37:40.655Z,41.88
2019-01-14T09:40:11.931Z,41.83
2019-01-14T09:42:39.704Z,41.85
2019-01-14T09:45:07.773Z,41.85
2019-01-14T09:47:35.750Z,41.92
2019-01-14T09:50:06.534Z,41.93
2019-01-14T09:52:35.028Z,41.93
2019-01-14T09:55:05.834Z,41.80
2019-01-14T09:57:34.836Z,41.74
2019-01-14T10:00:03.792Z,41.74
2019-01-14T10:02:32.621Z,41.72
2019-01-14T10:05:01.418Z,41.71
2019-01-14T10:07:29.832Z,41.74
2019-01-14T10:09:58.780Z,41.85
2019-01-14T10:12:27.719Z,41.85
2019-01-14T10:14:56.073Z,41.70
2019-01-14T10:17:26.824Z,41.72
2019-01-14T10:19:54.713Z,41.57
2019-01-14T10:22:22.776Z,41.41
2019-01-14T10:24:50.686Z,41.43
2019-01-14T10:29:29.502Z,41.39
2019-01-14T10:31:57.426Z,41.52
2019-01-14T10:34:25.378Z,41.39
2019-01-14T10:36:52.606Z,41.58
2019-01-14T10:39:20.598Z,41.56
2019-01-14T10:41:48.527Z,41.56
2019-01-14T10:44:15.789Z,41.43
2019-01-14T10:46:43.747Z,41.53
2019-01-14T10:49:11.238Z,41.48
2019-01-14T10:51:38.760Z,41.50
2019-01-14T10:54:05.762Z,41.50
2019-01-14T10:56:32.855Z,41.48
2019-01-14T10:59:00.250Z,41.30
2019-01-14T11:01:27.849Z,41.30
2019-01-14T11:03:56.043Z,41.53
2019-01-14T11:06:23.863Z,41.53
2019-01-14T11:08:57.398Z,41.30
2019-01-14T11:11:20.423Z,41.48
2019-01-14T11:13:48.450Z,41.34
2019-01-14T11:16:16.604Z,41.42
2019-01-14T11:18:49.423Z,41.51
2019-01-14T11:21:16.761Z,41.38
2019-01-14T11:23:44.237Z,41.41
2019-01-14T11:26:12.063Z,41.45
2019-01-14T11:28:39.885Z,41.47
2019-01-14T11:31:07.893Z,41.38
2019-01-14T11:33:39.430Z,41.28
2019-01-14T11:36:07.006Z,41.29
2019-01-14T11:38:42.035Z,40.98
2019-01-14T11:41:10.429Z,41.28
2019-01-14T11:43:37.697Z,41.41
2019-01-14T11:46:05.365Z,41.29
2019-01-14T11:48:32.958Z,41.07
2019-01-14T11:51:00.265Z,41.15
2019-01-14T11:53:29.947Z,41.29
2019-01-14T11:55:57.798Z,41.36
2019-01-14T11:58:26.349Z,41.36
2019-01-14T12:00:55.784Z,41.37
2019-01-14T12:03:23.685Z,41.10
2019-01-14T12:05:52.779Z,40.87
2019-01-14T12:08:21.114Z,41.25
2019-01-14T12:10:50.813Z,41.29
2019-01-14T12:13:20.776Z,41.22
2019-01-14T12:15:48.650Z,40.96
2019-01-14T12:18:16.846Z,41.04
2019-01-14T12:20:44.786Z,40.71
2019-01-14T12:23:13.805Z,40.71
2019-01-14T12:25:41.801Z,40.81
2019-01-14T12:28:09.705Z,40.84
2019-01-14T12:30:39.396Z,40.84
2019-01-14T12:33:07.791Z,40.93
2019-01-14T12:35:35.712Z,40.94
2019-01-14T12:38:03.996Z,40.85
2019-01-14T12:40:33.347Z,41.17
2019-01-14T12:43:01.745Z,41.17
2019-01-14T12:45:29.805Z,41.08
2019-01-14T12:47:57.772Z,41.12
2019-01-14T12:50:25.726Z,41.10
2019-01-14T12:52:53.983Z,41.01
2019-01-14T12:55:22.590Z,40.68
2019-01-14T12:57:50.776Z,40.68
2019-01-14T13:00:28.842Z,40.42
2019-01-14T13:02:58.438Z,40.17
2019-01-14T13:05:28.802Z,40.47
2019-01-14T13:07:56.598Z,40.51
2019-01-14T13:12:13.898Z,40.72
2019-01-14T13:14:41.943Z,40.63
2019-01-14T13:17:09.442Z,40.58
2019-01-14T13:19:36.569Z,40.39
2019-01-14T13:22:03.814Z,40.21
2019-01-14T13:24:32.013Z,40.29
2019-01-14T13:26:59.737Z,40.03
2019-01-14T13:29:28.035Z,40.28
2019-01-14T13:31:55.407Z,40.58
2019-01-14T13:34:23.024Z,40.76
2019-01-14T13:36:53.738Z,40.80
2019-01-14T13:39:21.779Z,40.80
2019-01-14T13:41:49.798Z,41.23
2019-01-14T13:44:17.760Z,41.08
2019-01-14T13:46:45.574Z,41.21
2019-01-14T13:49:14.335Z,41.09
2019-01-14T13:51:46.917Z,41.23
2019-01-14T13:54:14.350Z,41.26
2019-01-14T13:56:43.488Z,41.30
2019-01-14T13:59:11.923Z,41.07
2019-01-14T14:01:39.780Z,41.11
2019-01-14T14:04:07.659Z,41.11
2019-01-14T14:06:35.829Z,41.27
2019-01-14T14:09:06.749Z,41.46
2019-01-14T14:11:34.748Z,41.46
2019-01-14T14:14:04.755Z,41.48
2019-01-14T14:16:32.773Z,41.32
2019-01-14T14:19:00.673Z,41.33
2019-01-14T14:21:28.843Z,40.41
2019-01-14T14:23:56.673Z,41.67
2019-01-14T14:26:24.355Z,41.67
2019-01-14T14:28:53.770Z,41.30
2019-01-14T14:31:21.779Z,41.46
2019-01-14T14:33:50.370Z,41.38
2019-01-14T14:36:18.784Z,41.67
2019-01-14T14:38:47.615Z,41.75
2019-01-14T14:41:16.169Z,41.75
2019-01-14T14:43:44.800Z,41.59
2019-01-14T14:46:14.799Z,41.70
2019-01-14T14:48:42.731Z,41.70
2019-01-14T14:51:10.710Z,41.61
2019-01-14T14:53:39.097Z,41.75
2019-01-14T14:56:07.790Z,41.72
2019-01-14T14:58:35.832Z,41.72
2019-01-14T15:01:03.781Z,41.94
2019-01-14T15:03:31.709Z,41.70
2019-01-14T15:05:59.867Z,41.55
2019-01-14T15:08:27.854Z,41.02
2019-01-14T15:10:56.703Z,41.10
2019-01-14T15:13:24.616Z,41.10
2019-01-14T15:15:52.802Z,41.02
2019-01-14T15:18:20.910Z,41.02
2019-01-14T15:20:49.293Z,41.45
2019-01-14T15:23:18.806Z,41.45
2019-01-14T15:25:46.734Z,41.56
2019-01-14T15:28:14.789Z,41.57
2019-01-14T15:30:42.772Z,41.63
2019-01-14T15:33:10.706Z,41.46
2019-01-14T15:35:38.734Z,41.75
2019-01-14T15:38:07.066Z,41.55
2019-01-14T15:40:35.793Z,41.07
2019-01-14T15:43:03.770Z,41.07
2019-01-14T15:45:31.692Z,43.14
2019-01-14T15:48:00.793Z,41.98
2019-01-14T15:50:30.381Z,41.98
2019-01-14T15:52:59.767Z,41.90
2019-01-14T15:55:27.819Z,41.98
2019-01-14T15:57:56.058Z,42.00
2019-01-14T16:00:25.334Z,41.80
2019-01-14T16:02:53.789Z,41.80
2019-01-14T16:05:21.765Z,41.82
2019-01-14T16:07:49.727Z,41.95
2019-01-14T16:10:23.207Z,41.88
2019-01-14T16:12:52.812Z,42.05
2019-01-14T16:15:20.992Z,41.88
2019-01-14T16:17:50.197Z,40.98
2019-01-14T16:20:21.791Z,40.98
2019-01-14T16:22:50.345Z,40.45
2019-01-14T16:25:19.349Z,40.45
2019-01-14T16:27:49.382Z,40.43
2019-01-14T16:30:21.926Z,40.47
2019-01-14T16:32:50.814Z,41.16
2019-01-14T16:35:19.812Z,41.16
2019-01-14T16:37:47.983Z,41.09
2019-01-14T16:41:29.050Z,40.66
2019-01-14T16:43:56.813Z,40.69
2019-01-14T16:46:24.473Z,40.82
2019-01-14T16:48:52.436Z,40.96
2019-01-14T16:51:19.710Z,41.26
2019-01-14T16:53:46.610Z,41.18
2019-01-14T16:56:13.846Z,41.18
2019-01-14T16:58:41.381Z,41.21
2019-01-14T17:01:08.599Z,41.21
2019-01-14T17:03:36.463Z,41.48
2019-01-14T17:06:04.018Z,41.65
2019-01-14T17:08:31.880Z,41.74
2019-01-14T17:10:59.759Z,41.80
2019-01-14T17:13:26.628Z,41.80
2019-01-14T17:15:55.784Z,41.01
2019-01-14T17:18:23.691Z,41.24
2019-01-14T17:20:52.779Z,41.25
2019-01-14T17:23:20.715Z,40.54
2019-01-14T17:25:49.794Z,40.99
2019-01-14T17:28:17.804Z,41.45
2019-01-14T17:30:45.717Z,41.10
2019-01-14T17:33:14.003Z,41.28
2019-01-14T17:35:43.792Z,41.49
2019-01-14T17:38:11.823Z,41.49
2019-01-14T17:40:40.084Z,41.41
2019-01-14T17:43:08.707Z,41.58
2019-01-14T17:45:36.781Z,41.58
2019-01-14T17:48:04.709Z,41.49
2019-01-14T17:50:33.422Z,41.75
2019-01-14T17:53:01.822Z,41.75
2019-01-14T17:55:29.779Z,41.60
2019-01-14T17:57:58.078Z,41.80
2019-01-14T18:00:26.802Z,41.80
2019-01-14T18:02:54.703Z,41.67
2019-01-14T18:05:23.786Z,41.67
2019-01-14T18:07:52.811Z,41.26
2019-01-14T18:10:22.794Z,41.26
2019-01-14T18:12:51.877Z,41.26
2019-01-14T18:15:21.751Z,41.25
2019-01-14T18:17:50.049Z,41.50
2019-01-14T18:21:37.846Z,40.81
2019-01-14T18:24:06.303Z,41.28
2019-01-14T18:26:33.934Z,40.52
2019-01-14T18:29:01.616Z,41.24
2019-01-14T18:31:29.240Z,41.33
2019-01-14T18:33:56.516Z,41.55
2019-01-14T18:36:25.843Z,41.52
2019-01-14T18:38:54.485Z,41.72
2019-01-14T18:41:21.756Z,41.69
2019-01-14T18:46:24.801Z,42.12
2019-01-14T18:48:52.502Z,41.78
2019-01-14T18:51:20.069Z,41.97
2019-01-14T18:53:47.711Z,41.88
2019-01-14T18:56:14.689Z,41.55
2019-01-14T18:58:41.621Z,42.04
2019-01-14T19:01:09.405Z,40.75
2019-01-14T19:03:36.895Z,41.66
2019-01-14T19:06:04.430Z,42.06
2019-01-14T19:08:31.903Z,42.08
2019-01-14T19:11:00.444Z,42.01
2019-01-14T19:13:27.833Z,41.97
2019-01-14T19:15:56.097Z,41.79
2019-01-14T19:18:23.809Z,41.74
2019-01-14T19:20:51.705Z,42.02
2019-01-14T19:23:18.599Z,42.02
2019-01-14T19:25:46.900Z,42.14
2019-01-14T19:28:14.872Z,42.54
2019-01-14T19:30:42.540Z,41.76
2019-01-14T19:33:10.604Z,41.76
2019-01-14T19:35:38.241Z,41.64
2019-01-14T19:38:05.698Z,41.68
2019-01-14T19:40:33.426Z,41.60
2019-01-14T19:43:01.435Z,41.53
2019-01-14T19:45:30.451Z,41.66
2019-01-14T19:47:59.430Z,42.48
2019-01-14T19:50:27.002Z,41.19
2019-01-14T19:52:56.265Z,42.04
2019-01-14T19:55:24.338Z,43.36
2019-01-14T19:57:52.337Z,42.95
2019-01-14T20:00:29.728Z,43.00
2019-01-14T20:02:57.073Z,43.16
2019-01-14T20:05:24.391Z,43.73
2019-01-14T20:07:52.430Z,44.18
2019-01-14T20:10:19.728Z,43.93
2019-01-14T20:12:47.691Z,43.98
2019-01-14T20:15:15.787Z,43.89
2019-01-14T20:17:43.448Z,43.82
2019-01-14T20:20:11.354Z,43.98
2019-01-14T20:22:39.317Z,44.43
2019-01-14T20:25:08.251Z,44.46
2019-01-14T20:27:36.373Z,44.55
2019-01-14T20:30:10.518Z,44.55
2019-01-14T20:32:37.966Z,44.14
2019-01-14T20:35:05.402Z,45.11
2019-01-14T20:37:33.547Z,45.36
2019-01-14T20:40:01.440Z,45.07
2019-01-14T20:42:29.372Z,44.88
2019-01-14T20:44:57.799Z,45.04
2019-01-14T20:47:26.304Z,45.81
2019-01-14T20:49:54.666Z,45.71
2019-01-14T20:52:23.363Z,44.44
2019-01-14T20:54:51.779Z,43.99
2019-01-14T20:57:19.598Z,44.15
2019-01-14T20:59:48.024Z,43.99
2019-01-14T21:02:17.018Z,43.53
2019-01-14T21:04:45.764Z,42.31
2019-01-14T21:07:13.842Z,42.31
2019-01-14T21:09:42.059Z,41.98
2019-01-14T21:12:10.773Z,42.99
2019-01-14T21:14:38.605Z,42.99
2019-01-14T21:17:06.766Z,43.34
2019-01-14T21:19:34.596Z,43.86
2019-01-14T21:22:02.830Z,43.94
2019-01-14T21:25:18.240Z,44.12
2019-01-14T21:27:45.801Z,43.82
2019-01-14T21:30:17.840Z,43.53
2019-01-14T21:32:45.521Z,43.18
2019-01-14T21:35:12.753Z,43.54
2019-01-14T21:37:40.383Z,43.22
2019-01-14T21:40:08.804Z,43.22
2019-01-14T21:42:36.731Z,43.69
2019-01-14T21:45:04.867Z,43.01
2019-01-14T21:47:32.958Z,43.35
2019-01-14T21:50:00.377Z,43.21
2019-01-14T21:52:27.683Z,43.20
2019-01-14T21:54:55.854Z,43.28
2019-01-14T21:57:23.611Z,43.07
2019-01-14T21:59:51.373Z,43.07
2019-01-14T22:02:19.237Z,43.12
2019-01-14T22:04:46.946Z,42.66
2019-01-14T22:07:14.572Z,42.83
2019-01-14T22:09:43.476Z,43.02
2019-01-14T22:12:10.762Z,42.88
2019-01-14T22:14:39.331Z,42.60
2019-01-14T22:17:07.355Z,42.50
2019-01-14T22:19:36.431Z,42.89
2019-01-14T22:22:04.563Z,41.62
2019-01-14T22:24:31.754Z,42.28
2019-01-14T22:26:59.481Z,42.50
2019-01-14T22:29:27.241Z,43.21
2019-01-14T22:31:54.446Z,42.77
2019-01-14T22:34:22.018Z,42.57
2019-01-14T22:36:49.373Z,42.51
2019-01-14T22:39:17.370Z,42.63
2019-01-14T22:41:45.894Z,42.68
2019-01-14T22:44:14.015Z,42.63
2019-01-14T22:46:41.549Z,42.71
2019-01-14T22:49:08.818Z,42.78
2019-01-14T22:51:36.476Z,42.53
2019-01-14T22:54:03.767Z,42.43
2019-01-14T22:56:30.789Z,42.28
2019-01-14T22:58:58.486Z,41.81
2019-01-14T23:01:44.018Z,41.26
2019-01-14T23:04:11.559Z,40.74
2019-01-14T23:06:39.690Z,42.13
2019-01-14T23:09:08.370Z,42.41
2019-01-14T23:11:36.764Z,42.63
2019-01-14T23:14:04.586Z,42.48
2019-01-14T23:16:32.815Z,42.64
2019-01-14T23:19:01.306Z,42.72
2019-01-14T23:21:29.769Z,42.68
2019-01-14T23:23:58.754Z,42.55
2019-01-14T23:26:26.350Z,42.84
2019-01-14T23:28:54.782Z,42.68
2019-01-14T23:31:22.661Z,42.67
2019-01-14T23:33:51.394Z,42.86
2019-01-14T23:36:19.791Z,42.37
2019-01-14T23:38:48.758Z,42.81
2019-01-14T23:41:16.688Z,42.75
2019-01-14T23:43:44.853Z,41.77
2019-01-14T23:46:13.099Z,42.54
2019-01-14T23:48:41.806Z,42.79
2019-01-14T23:51:09.792Z,42.79
2019-01-14T23:53:38.785Z,42.13
2019-01-14T23:56:07.497Z,42.13
